sensor_id;sensor_type;location;lat;lon;timestamp;P1;durP1;ratioP1;P2;durP2;ratioP2
2161;SDS011;1087;50.226;8.682;2023-03-14T00:00:51;3.20;;;2.20;;
2161;SDS011;1087;50.226;8.682;2023-03-14T00:03:17;3.43;;;2.20;;
2161;SDS011;1087;50.226;8.682;2023-03-14T00:05:43;3.03;;;1.90;;
2161;SDS011;1087;50.226;8.682;2023-03-14T00:08:08;3.13;;;2.30;;
2161;SDS011;1087;50.226;8.682;2023-03-14T00:10:35;3.20;;;2.10;;
2161;SDS011;1087;50.226;8.682;2023-03-14T00:13:01;2.80;;;1.90;;
2161;SDS011;1087;50.226;8.682;2023-03-14T00:15:27;4.73;;;2.30;;
2161;SDS011;1087;50.226;8.682;2023-03-14T00:17:52;2.43;;;2.23;;
2161;SDS011;1087;50.226;8.682;2023-03-14T00:20:18;3.30;;;1.80;;
2161;SDS011;1087;50.226;8.682;2023-03-14T00:22:43;3.53;;;1.80;;
2161;SDS011;1087;50.226;8.682;2023-03-14T00:25:10;3.93;;;2.00;;
2161;SDS011;1087;50.226;8.682;2023-03-14T00:27:36;2.10;;;1.90;;
2161;SDS011;1087;50.226;8.682;2023-03-14T00:30:02;5.70;;;2.50;;
2161;SDS011;1087;50.226;8.682;2023-03-14T00:32:29;2.43;;;1.87;;
2161;SDS011;1087;50.226;8.682;2023-03-14T00:34:55;3.00;;;2.73;;
2161;SDS011;1087;50.226;8.682;2023-03-14T00:37:20;3.70;;;2.40;;
2161;SDS011;1087;50.226;8.682;2023-03-14T00:39:46;2.97;;;2.00;;
2161;SDS011;1087;50.226;8.682;2023-03-14T00:42:12;2.83;;;2.43;;
2161;SDS011;1087;50.226;8.682;2023-03-14T00:44:38;2.20;;;2.00;;
2161;SDS011;1087;50.226;8.682;2023-03-14T00:47:03;2.27;;;2.00;;
2161;SDS011;1087;50.226;8.682;2023-03-14T00:49:29;2.70;;;1.77;;
2161;SDS011;1087;50.226;8.682;2023-03-14T00:51:54;2.23;;;2.00;;
2161;SDS011;1087;50.226;8.682;2023-03-14T00:54:20;2.37;;;2.03;;
2161;SDS011;1087;50.226;8.682;2023-03-14T00:56:45;2.20;;;1.90;;
2161;SDS011;1087;50.226;8.682;2023-03-14T00:59:11;2.23;;;2.03;;
2161;SDS011;1087;50.226;8.682;2023-03-14T01:01:37;4.77;;;2.00;;
2161;SDS011;1087;50.226;8.682;2023-03-14T01:04:04;2.60;;;1.77;;
2161;SDS011;1087;50.226;8.682;2023-03-14T01:06:29;4.53;;;2.27;;
2161;SDS011;1087;50.226;8.682;2023-03-14T01:08:55;2.97;;;2.00;;
2161;SDS011;1087;50.226;8.682;2023-03-14T01:11:23;2.60;;;2.00;;
2161;SDS011;1087;50.226;8.682;2023-03-14T01:13:50;2.77;;;1.97;;
2161;SDS011;1087;50.226;8.682;2023-03-14T01:16:16;1.60;;;1.50;;
2161;SDS011;1087;50.226;8.682;2023-03-14T01:18:44;2.30;;;1.87;;
2161;SDS011;1087;50.226;8.682;2023-03-14T01:21:12;3.83;;;2.13;;
2161;SDS011;1087;50.226;8.682;2023-03-14T01:23:40;2.67;;;2.20;;
2161;SDS011;1087;50.226;8.682;2023-03-14T01:26:10;1.97;;;1.70;;
2161;SDS011;1087;50.226;8.682;2023-03-14T01:28:37;2.97;;;1.87;;
2161;SDS011;1087;50.226;8.682;2023-03-14T01:31:03;3.63;;;1.90;;
2161;SDS011;1087;50.226;8.682;2023-03-14T01:33:34;5.43;;;2.50;;
2161;SDS011;1087;50.226;8.682;2023-03-14T01:36:00;3.97;;;2.17;;
2161;SDS011;1087;50.226;8.682;2023-03-14T01:38:28;3.50;;;1.93;;
2161;SDS011;1087;50.226;8.682;2023-03-14T01:40:54;5.63;;;2.30;;
2161;SDS011;1087;50.226;8.682;2023-03-14T01:43:20;2.07;;;1.73;;
2161;SDS011;1087;50.226;8.682;2023-03-14T01:48:32;4.77;;;1.80;;
2161;SDS011;1087;50.226;8.682;2023-03-14T01:51:03;3.73;;;1.80;;
2161;SDS011;1087;50.226;8.682;2023-03-14T01:53:31;4.57;;;2.07;;
2161;SDS011;1087;50.226;8.682;2023-03-14T01:55:57;4.13;;;1.60;;
2161;SDS011;1087;50.226;8.682;2023-03-14T01:58:22;3.30;;;1.50;;
2161;SDS011;1087;50.226;8.682;2023-03-14T02:00:52;2.80;;;1.60;;
2161;SDS011;1087;50.226;8.682;2023-03-14T02:03:18;3.63;;;1.80;;
2161;SDS011;1087;50.226;8.682;2023-03-14T02:05:47;3.47;;;1.50;;
2161;SDS011;1087;50.226;8.682;2023-03-14T02:08:14;2.27;;;1.70;;
2161;SDS011;1087;50.226;8.682;2023-03-14T02:10:44;4.10;;;2.30;;
2161;SDS011;1087;50.226;8.682;2023-03-14T02:13:11;4.87;;;2.03;;
2161;SDS011;1087;50.226;8.682;2023-03-14T02:15:39;3.70;;;1.70;;
2161;SDS011;1087;50.226;8.682;2023-03-14T02:18:05;3.43;;;1.83;;
2161;SDS011;1087;50.226;8.682;2023-03-14T02:20:38;3.20;;;2.00;;
2161;SDS011;1087;50.226;8.682;2023-03-14T02:23:22;2.77;;;1.70;;
2161;SDS011;1087;50.226;8.682;2023-03-14T02:26:09;7.00;;;1.80;;
2161;SDS011;1087;50.226;8.682;2023-03-14T02:28:38;4.50;;;1.87;;
2161;SDS011;1087;50.226;8.682;2023-03-14T02:31:04;4.00;;;1.80;;
2161;SDS011;1087;50.226;8.682;2023-03-14T02:33:30;5.50;;;1.90;;
2161;SDS011;1087;50.226;8.682;2023-03-14T02:35:57;2.20;;;1.97;;
2161;SDS011;1087;50.226;8.682;2023-03-14T02:38:29;5.30;;;1.60;;
2161;SDS011;1087;50.226;8.682;2023-03-14T02:40:56;3.90;;;2.47;;
2161;SDS011;1087;50.226;8.682;2023-03-14T02:43:21;2.00;;;1.40;;
2161;SDS011;1087;50.226;8.682;2023-03-14T02:45:48;2.93;;;2.50;;
2161;SDS011;1087;50.226;8.682;2023-03-14T02:48:35;2.50;;;1.43;;
2161;SDS011;1087;50.226;8.682;2023-03-14T02:51:19;2.23;;;2.00;;
2161;SDS011;1087;50.226;8.682;2023-03-14T02:53:46;2.37;;;1.60;;
2161;SDS011;1087;50.226;8.682;2023-03-14T02:56:11;2.73;;;2.07;;
2161;SDS011;1087;50.226;8.682;2023-03-14T02:58:37;4.83;;;1.87;;
2161;SDS011;1087;50.226;8.682;2023-03-14T03:01:03;3.63;;;1.87;;
2161;SDS011;1087;50.226;8.682;2023-03-14T03:03:29;3.97;;;1.80;;
2161;SDS011;1087;50.226;8.682;2023-03-14T03:05:55;4.07;;;1.90;;
2161;SDS011;1087;50.226;8.682;2023-03-14T03:08:22;5.80;;;1.67;;
2161;SDS011;1087;50.226;8.682;2023-03-14T03:10:49;2.43;;;1.90;;
2161;SDS011;1087;50.226;8.682;2023-03-14T03:13:16;4.23;;;1.97;;
2161;SDS011;1087;50.226;8.682;2023-03-14T03:15:42;6.50;;;2.40;;
2161;SDS011;1087;50.226;8.682;2023-03-14T03:18:09;5.63;;;2.10;;
2161;SDS011;1087;50.226;8.682;2023-03-14T03:20:34;3.17;;;2.23;;
2161;SDS011;1087;50.226;8.682;2023-03-14T03:23:00;3.67;;;2.27;;
2161;SDS011;1087;50.226;8.682;2023-03-14T03:25:26;7.87;;;2.77;;
2161;SDS011;1087;50.226;8.682;2023-03-14T03:27:52;3.43;;;2.00;;
2161;SDS011;1087;50.226;8.682;2023-03-14T03:30:18;3.83;;;2.27;;
2161;SDS011;1087;50.226;8.682;2023-03-14T03:32:44;4.40;;;2.30;;
2161;SDS011;1087;50.226;8.682;2023-03-14T03:35:09;4.10;;;2.27;;
2161;SDS011;1087;50.226;8.682;2023-03-14T03:37:35;6.47;;;2.30;;
2161;SDS011;1087;50.226;8.682;2023-03-14T03:40:01;2.80;;;2.10;;
2161;SDS011;1087;50.226;8.682;2023-03-14T03:42:30;4.17;;;1.83;;
2161;SDS011;1087;50.226;8.682;2023-03-14T03:44:56;4.40;;;1.63;;
2161;SDS011;1087;50.226;8.682;2023-03-14T03:47:22;3.87;;;2.40;;
2161;SDS011;1087;50.226;8.682;2023-03-14T03:49:47;3.20;;;2.10;;
2161;SDS011;1087;50.226;8.682;2023-03-14T03:52:13;4.33;;;1.90;;
2161;SDS011;1087;50.226;8.682;2023-03-14T03:54:38;5.63;;;1.77;;
2161;SDS011;1087;50.226;8.682;2023-03-14T03:57:04;4.20;;;1.77;;
2161;SDS011;1087;50.226;8.682;2023-03-14T03:59:29;3.00;;;2.00;;
2161;SDS011;1087;50.226;8.682;2023-03-14T04:01:55;3.57;;;1.80;;
2161;SDS011;1087;50.226;8.682;2023-03-14T04:04:20;7.37;;;2.00;;
2161;SDS011;1087;50.226;8.682;2023-03-14T04:06:46;3.37;;;1.50;;
2161;SDS011;1087;50.226;8.682;2023-03-14T04:09:11;3.97;;;1.60;;
2161;SDS011;1087;50.226;8.682;2023-03-14T04:11:37;7.67;;;2.00;;
2161;SDS011;1087;50.226;8.682;2023-03-14T04:14:03;3.13;;;2.10;;
2161;SDS011;1087;50.226;8.682;2023-03-14T04:16:30;4.53;;;1.67;;
2161;SDS011;1087;50.226;8.682;2023-03-14T04:18:59;4.97;;;1.63;;
2161;SDS011;1087;50.226;8.682;2023-03-14T04:21:25;4.97;;;1.60;;
2161;SDS011;1087;50.226;8.682;2023-03-14T04:23:51;4.33;;;2.40;;
2161;SDS011;1087;50.226;8.682;2023-03-14T04:26:16;2.50;;;1.67;;
2161;SDS011;1087;50.226;8.682;2023-03-14T04:28:42;3.30;;;1.83;;
2161;SDS011;1087;50.226;8.682;2023-03-14T04:31:09;5.23;;;1.50;;
2161;SDS011;1087;50.226;8.682;2023-03-14T04:33:36;2.33;;;1.40;;
2161;SDS011;1087;50.226;8.682;2023-03-14T04:36:02;2.83;;;1.80;;
2161;SDS011;1087;50.226;8.682;2023-03-14T04:38:28;5.80;;;1.83;;
2161;SDS011;1087;50.226;8.682;2023-03-14T04:40:54;3.20;;;2.90;;
2161;SDS011;1087;50.226;8.682;2023-03-14T04:43:19;1.80;;;1.50;;
2161;SDS011;1087;50.226;8.682;2023-03-14T04:45:45;4.00;;;1.90;;
2161;SDS011;1087;50.226;8.682;2023-03-14T04:48:10;3.87;;;1.90;;
2161;SDS011;1087;50.226;8.682;2023-03-14T04:50:37;3.53;;;1.90;;
2161;SDS011;1087;50.226;8.682;2023-03-14T04:53:03;4.23;;;1.90;;
2161;SDS011;1087;50.226;8.682;2023-03-14T04:55:28;4.43;;;1.70;;
2161;SDS011;1087;50.226;8.682;2023-03-14T04:57:54;3.80;;;2.07;;
2161;SDS011;1087;50.226;8.682;2023-03-14T05:00:19;2.30;;;1.67;;
2161;SDS011;1087;50.226;8.682;2023-03-14T05:02:45;4.93;;;1.60;;
2161;SDS011;1087;50.226;8.682;2023-03-14T05:05:10;3.60;;;1.50;;
2161;SDS011;1087;50.226;8.682;2023-03-14T05:07:36;4.30;;;1.60;;
2161;SDS011;1087;50.226;8.682;2023-03-14T05:10:01;3.67;;;2.00;;
2161;SDS011;1087;50.226;8.682;2023-03-14T05:12:27;4.90;;;1.97;;
2161;SDS011;1087;50.226;8.682;2023-03-14T05:14:53;2.60;;;1.83;;
2161;SDS011;1087;50.226;8.682;2023-03-14T05:17:19;4.10;;;1.60;;
2161;SDS011;1087;50.226;8.682;2023-03-14T05:19:44;6.03;;;1.80;;
2161;SDS011;1087;50.226;8.682;2023-03-14T05:22:10;3.50;;;1.90;;
2161;SDS011;1087;50.226;8.682;2023-03-14T05:24:36;3.37;;;1.43;;
2161;SDS011;1087;50.226;8.682;2023-03-14T05:27:02;3.47;;;1.30;;
2161;SDS011;1087;50.226;8.682;2023-03-14T05:29:28;5.03;;;1.77;;
2161;SDS011;1087;50.226;8.682;2023-03-14T05:31:53;3.03;;;1.70;;
2161;SDS011;1087;50.226;8.682;2023-03-14T05:34:19;5.60;;;2.00;;
2161;SDS011;1087;50.226;8.682;2023-03-14T05:36:44;2.87;;;2.00;;
2161;SDS011;1087;50.226;8.682;2023-03-14T05:39:10;7.60;;;2.20;;
2161;SDS011;1087;50.226;8.682;2023-03-14T05:41:35;2.43;;;1.30;;
2161;SDS011;1087;50.226;8.682;2023-03-14T05:44:01;3.63;;;1.40;;
2161;SDS011;1087;50.226;8.682;2023-03-14T05:46:26;2.37;;;1.70;;
2161;SDS011;1087;50.226;8.682;2023-03-14T05:48:52;3.60;;;1.97;;
2161;SDS011;1087;50.226;8.682;2023-03-14T05:51:17;4.27;;;1.77;;
2161;SDS011;1087;50.226;8.682;2023-03-14T05:53:43;3.50;;;1.80;;
2161;SDS011;1087;50.226;8.682;2023-03-14T05:56:09;5.60;;;1.60;;
2161;SDS011;1087;50.226;8.682;2023-03-14T05:58:34;4.13;;;1.87;;
2161;SDS011;1087;50.226;8.682;2023-03-14T06:01:03;3.97;;;1.90;;
2161;SDS011;1087;50.226;8.682;2023-03-14T06:03:30;4.00;;;1.27;;
2161;SDS011;1087;50.226;8.682;2023-03-14T06:05:56;2.93;;;1.50;;
2161;SDS011;1087;50.226;8.682;2023-03-14T06:08:22;4.60;;;1.70;;
2161;SDS011;1087;50.226;8.682;2023-03-14T06:10:47;3.37;;;1.33;;
2161;SDS011;1087;50.226;8.682;2023-03-14T06:13:13;2.43;;;1.30;;
2161;SDS011;1087;50.226;8.682;2023-03-14T06:15:40;3.33;;;1.10;;
2161;SDS011;1087;50.226;8.682;2023-03-14T06:18:06;3.53;;;1.30;;
2161;SDS011;1087;50.226;8.682;2023-03-14T06:20:32;3.07;;;1.53;;
2161;SDS011;1087;50.226;8.682;2023-03-14T06:22:58;2.47;;;1.57;;
2161;SDS011;1087;50.226;8.682;2023-03-14T06:25:24;3.60;;;1.20;;
2161;SDS011;1087;50.226;8.682;2023-03-14T06:27:49;2.03;;;1.30;;
2161;SDS011;1087;50.226;8.682;2023-03-14T06:30:15;3.37;;;1.60;;
2161;SDS011;1087;50.226;8.682;2023-03-14T06:32:41;3.67;;;1.73;;
2161;SDS011;1087;50.226;8.682;2023-03-14T06:35:07;2.30;;;1.13;;
2161;SDS011;1087;50.226;8.682;2023-03-14T06:37:33;3.03;;;1.60;;
2161;SDS011;1087;50.226;8.682;2023-03-14T06:39:58;2.33;;;1.57;;
2161;SDS011;1087;50.226;8.682;2023-03-14T06:42:24;4.10;;;1.57;;
2161;SDS011;1087;50.226;8.682;2023-03-14T06:44:49;3.80;;;1.67;;
2161;SDS011;1087;50.226;8.682;2023-03-14T06:47:15;2.00;;;1.70;;
2161;SDS011;1087;50.226;8.682;2023-03-14T06:49:40;1.63;;;1.37;;
2161;SDS011;1087;50.226;8.682;2023-03-14T06:52:06;2.50;;;1.30;;
2161;SDS011;1087;50.226;8.682;2023-03-14T06:54:31;4.77;;;1.63;;
2161;SDS011;1087;50.226;8.682;2023-03-14T06:56:57;2.70;;;1.93;;
2161;SDS011;1087;50.226;8.682;2023-03-14T06:59:23;2.70;;;1.53;;
2161;SDS011;1087;50.226;8.682;2023-03-14T07:01:48;5.63;;;1.60;;
2161;SDS011;1087;50.226;8.682;2023-03-14T07:04:15;2.30;;;1.60;;
2161;SDS011;1087;50.226;8.682;2023-03-14T07:06:41;1.60;;;1.37;;
2161;SDS011;1087;50.226;8.682;2023-03-14T07:09:09;1.53;;;1.43;;
2161;SDS011;1087;50.226;8.682;2023-03-14T07:11:35;2.23;;;1.23;;
2161;SDS011;1087;50.226;8.682;2023-03-14T07:14:01;3.20;;;1.70;;
2161;SDS011;1087;50.226;8.682;2023-03-14T07:16:27;2.20;;;1.47;;
2161;SDS011;1087;50.226;8.682;2023-03-14T07:18:56;2.80;;;1.53;;
2161;SDS011;1087;50.226;8.682;2023-03-14T07:21:21;2.93;;;1.90;;
2161;SDS011;1087;50.226;8.682;2023-03-14T07:23:47;3.70;;;1.47;;
2161;SDS011;1087;50.226;8.682;2023-03-14T07:26:13;1.33;;;1.23;;
2161;SDS011;1087;50.226;8.682;2023-03-14T07:28:38;3.30;;;1.30;;
2161;SDS011;1087;50.226;8.682;2023-03-14T07:31:04;2.03;;;1.30;;
2161;SDS011;1087;50.226;8.682;2023-03-14T07:33:30;1.80;;;1.33;;
2161;SDS011;1087;50.226;8.682;2023-03-14T07:35:55;3.50;;;1.60;;
2161;SDS011;1087;50.226;8.682;2023-03-14T07:38:21;2.20;;;1.03;;
2161;SDS011;1087;50.226;8.682;2023-03-14T07:40:47;4.10;;;1.40;;
2161;SDS011;1087;50.226;8.682;2023-03-14T07:43:12;5.80;;;1.50;;
2161;SDS011;1087;50.226;8.682;2023-03-14T07:45:38;1.47;;;1.37;;
2161;SDS011;1087;50.226;8.682;2023-03-14T07:48:03;2.40;;;1.27;;
2161;SDS011;1087;50.226;8.682;2023-03-14T07:50:29;3.83;;;1.57;;
2161;SDS011;1087;50.226;8.682;2023-03-14T07:52:54;2.40;;;1.43;;
2161;SDS011;1087;50.226;8.682;2023-03-14T07:55:20;3.50;;;1.90;;
2161;SDS011;1087;50.226;8.682;2023-03-14T07:57:46;1.70;;;1.33;;
2161;SDS011;1087;50.226;8.682;2023-03-14T08:00:11;2.97;;;1.77;;
2161;SDS011;1087;50.226;8.682;2023-03-14T08:02:39;2.80;;;1.83;;
2161;SDS011;1087;50.226;8.682;2023-03-14T08:05:05;4.40;;;1.80;;
2161;SDS011;1087;50.226;8.682;2023-03-14T08:07:31;2.80;;;1.53;;
2161;SDS011;1087;50.226;8.682;2023-03-14T08:09:57;1.73;;;1.63;;
2161;SDS011;1087;50.226;8.682;2023-03-14T08:12:22;1.90;;;1.30;;
2161;SDS011;1087;50.226;8.682;2023-03-14T08:14:48;2.10;;;1.30;;
2161;SDS011;1087;50.226;8.682;2023-03-14T08:17:13;4.33;;;1.77;;
2161;SDS011;1087;50.226;8.682;2023-03-14T08:19:40;2.20;;;1.70;;
2161;SDS011;1087;50.226;8.682;2023-03-14T08:22:06;2.83;;;1.27;;
2161;SDS011;1087;50.226;8.682;2023-03-14T08:24:31;2.73;;;2.13;;
2161;SDS011;1087;50.226;8.682;2023-03-14T08:26:57;6.00;;;2.50;;
2161;SDS011;1087;50.226;8.682;2023-03-14T08:29:23;2.80;;;1.97;;
2161;SDS011;1087;50.226;8.682;2023-03-14T08:31:48;2.40;;;1.90;;
2161;SDS011;1087;50.226;8.682;2023-03-14T08:34:14;2.80;;;1.80;;
2161;SDS011;1087;50.226;8.682;2023-03-14T08:36:40;2.33;;;2.10;;
2161;SDS011;1087;50.226;8.682;2023-03-14T08:39:05;4.77;;;2.00;;
2161;SDS011;1087;50.226;8.682;2023-03-14T08:41:32;2.30;;;1.57;;
2161;SDS011;1087;50.226;8.682;2023-03-14T08:43:58;5.60;;;1.83;;
2161;SDS011;1087;50.226;8.682;2023-03-14T08:46:23;2.20;;;1.53;;
2161;SDS011;1087;50.226;8.682;2023-03-14T08:48:49;2.10;;;1.50;;
2161;SDS011;1087;50.226;8.682;2023-03-14T08:51:15;2.07;;;1.87;;
2161;SDS011;1087;50.226;8.682;2023-03-14T08:53:40;1.60;;;1.50;;
2161;SDS011;1087;50.226;8.682;2023-03-14T08:56:06;3.17;;;2.00;;
2161;SDS011;1087;50.226;8.682;2023-03-14T08:58:34;3.20;;;1.93;;
2161;SDS011;1087;50.226;8.682;2023-03-14T09:01:02;3.17;;;2.07;;
2161;SDS011;1087;50.226;8.682;2023-03-14T09:03:31;2.50;;;2.10;;
2161;SDS011;1087;50.226;8.682;2023-03-14T09:06:00;4.20;;;2.47;;
2161;SDS011;1087;50.226;8.682;2023-03-14T09:08:28;3.90;;;1.90;;
2161;SDS011;1087;50.226;8.682;2023-03-14T09:10:53;2.63;;;2.40;;
2161;SDS011;1087;50.226;8.682;2023-03-14T09:13:19;5.03;;;3.13;;
2161;SDS011;1087;50.226;8.682;2023-03-14T09:15:44;3.00;;;2.40;;
2161;SDS011;1087;50.226;8.682;2023-03-14T09:18:14;3.73;;;2.50;;
2161;SDS011;1087;50.226;8.682;2023-03-14T09:20:40;2.53;;;2.30;;
2161;SDS011;1087;50.226;8.682;2023-03-14T09:23:05;3.03;;;2.27;;
2161;SDS011;1087;50.226;8.682;2023-03-14T09:25:31;2.90;;;2.27;;
2161;SDS011;1087;50.226;8.682;2023-03-14T09:27:56;3.33;;;2.20;;
2161;SDS011;1087;50.226;8.682;2023-03-14T09:30:22;3.17;;;2.20;;
2161;SDS011;1087;50.226;8.682;2023-03-14T09:32:47;3.77;;;2.50;;
2161;SDS011;1087;50.226;8.682;2023-03-14T09:35:13;3.83;;;2.60;;
2161;SDS011;1087;50.226;8.682;2023-03-14T09:37:38;2.90;;;2.70;;
2161;SDS011;1087;50.226;8.682;2023-03-14T09:40:04;4.70;;;3.00;;
2161;SDS011;1087;50.226;8.682;2023-03-14T09:42:35;4.20;;;2.87;;
2161;SDS011;1087;50.226;8.682;2023-03-14T09:45:04;3.80;;;2.60;;
2161;SDS011;1087;50.226;8.682;2023-03-14T09:47:35;3.10;;;2.57;;
2161;SDS011;1087;50.226;8.682;2023-03-14T09:50:01;3.40;;;3.00;;
2161;SDS011;1087;50.226;8.682;2023-03-14T09:52:29;4.53;;;3.03;;
2161;SDS011;1087;50.226;8.682;2023-03-14T09:54:58;5.70;;;3.17;;
2161;SDS011;1087;50.226;8.682;2023-03-14T09:57:27;5.63;;;3.00;;
2161;SDS011;1087;50.226;8.682;2023-03-14T09:59:58;2.53;;;2.33;;
2161;SDS011;1087;50.226;8.682;2023-03-14T10:02:37;3.13;;;2.93;;
2161;SDS011;1087;50.226;8.682;2023-03-14T10:05:07;3.33;;;3.03;;
2161;SDS011;1087;50.226;8.682;2023-03-14T10:07:40;2.97;;;2.77;;
2161;SDS011;1087;50.226;8.682;2023-03-14T10:10:09;2.83;;;2.27;;
2161;SDS011;1087;50.226;8.682;2023-03-14T10:12:36;3.20;;;2.90;;
2161;SDS011;1087;50.226;8.682;2023-03-14T10:15:08;4.37;;;3.20;;
2161;SDS011;1087;50.226;8.682;2023-03-14T10:17:43;5.53;;;3.00;;
2161;SDS011;1087;50.226;8.682;2023-03-14T10:22:59;3.20;;;2.90;;
2161;SDS011;1087;50.226;8.682;2023-03-14T10:25:44;4.30;;;3.90;;
2161;SDS011;1087;50.226;8.682;2023-03-14T10:28:22;4.60;;;3.37;;
2161;SDS011;1087;50.226;8.682;2023-03-14T10:30:50;4.23;;;2.90;;
2161;SDS011;1087;50.226;8.682;2023-03-14T10:35:41;7.43;;;3.80;;
2161;SDS011;1087;50.226;8.682;2023-03-14T10:38:10;3.87;;;3.40;;
2161;SDS011;1087;50.226;8.682;2023-03-14T10:40:39;4.40;;;3.10;;
2161;SDS011;1087;50.226;8.682;2023-03-14T10:43:07;3.27;;;2.73;;
2161;SDS011;1087;50.226;8.682;2023-03-14T10:45:41;2.70;;;2.50;;
2161;SDS011;1087;50.226;8.682;2023-03-14T10:48:43;3.40;;;2.70;;
2161;SDS011;1087;50.226;8.682;2023-03-14T10:51:04;3.30;;;3.00;;
2161;SDS011;1087;50.226;8.682;2023-03-14T10:53:43;3.77;;;3.50;;
2161;SDS011;1087;50.226;8.682;2023-03-14T10:56:33;3.63;;;3.33;;
2161;SDS011;1087;50.226;8.682;2023-03-14T10:58:59;3.20;;;2.90;;
2161;SDS011;1087;50.226;8.682;2023-03-14T11:04:29;3.60;;;3.30;;
2161;SDS011;1087;50.226;8.682;2023-03-14T11:07:12;3.40;;;3.10;;
2161;SDS011;1087;50.226;8.682;2023-03-14T11:15:15;5.00;;;4.00;;
2161;SDS011;1087;50.226;8.682;2023-03-14T11:18:16;4.03;;;3.20;;
2161;SDS011;1087;50.226;8.682;2023-03-14T11:21:48;3.00;;;2.60;;
2161;SDS011;1087;50.226;8.682;2023-03-14T11:32:34;3.40;;;3.10;;
2161;SDS011;1087;50.226;8.682;2023-03-14T11:35:12;3.57;;;3.27;;
2161;SDS011;1087;50.226;8.682;2023-03-14T11:37:45;3.60;;;3.27;;
2161;SDS011;1087;50.226;8.682;2023-03-14T11:40:17;4.83;;;3.77;;
2161;SDS011;1087;50.226;8.682;2023-03-14T11:42:47;4.43;;;4.13;;
2161;SDS011;1087;50.226;8.682;2023-03-14T11:45:38;4.37;;;4.07;;
2161;SDS011;1087;50.226;8.682;2023-03-14T11:50:46;4.27;;;3.87;;
2161;SDS011;1087;50.226;8.682;2023-03-14T11:56:04;4.80;;;4.40;;
2161;SDS011;1087;50.226;8.682;2023-03-14T11:58:41;4.30;;;4.00;;
2161;SDS011;1087;50.226;8.682;2023-03-14T12:01:40;5.27;;;4.10;;
2161;SDS011;1087;50.226;8.682;2023-03-14T12:07:21;4.20;;;3.77;;
2161;SDS011;1087;50.226;8.682;2023-03-14T12:09:54;2.60;;;2.13;;
2161;SDS011;1087;50.226;8.682;2023-03-14T12:12:22;5.37;;;2.20;;
2161;SDS011;1087;50.226;8.682;2023-03-14T12:14:56;2.30;;;1.57;;
2161;SDS011;1087;50.226;8.682;2023-03-14T12:17:33;2.13;;;1.60;;
2161;SDS011;1087;50.226;8.682;2023-03-14T12:20:03;1.20;;;1.10;;
2161;SDS011;1087;50.226;8.682;2023-03-14T12:22:41;1.50;;;1.13;;
2161;SDS011;1087;50.226;8.682;2023-03-14T12:27:46;1.60;;;1.43;;
2161;SDS011;1087;50.226;8.682;2023-03-14T12:35:57;2.50;;;1.17;;
2161;SDS011;1087;50.226;8.682;2023-03-14T12:38:43;1.33;;;1.23;;
2161;SDS011;1087;50.226;8.682;2023-03-14T12:41:18;1.30;;;1.20;;
2161;SDS011;1087;50.226;8.682;2023-03-14T12:44:24;1.20;;;1.10;;
2161;SDS011;1087;50.226;8.682;2023-03-14T12:46:54;1.23;;;1.10;;
2161;SDS011;1087;50.226;8.682;2023-03-14T12:49:28;1.60;;;1.50;;
2161;SDS011;1087;50.226;8.682;2023-03-14T12:51:58;2.73;;;1.33;;
2161;SDS011;1087;50.226;8.682;2023-03-14T12:54:45;1.60;;;1.50;;
2161;SDS011;1087;50.226;8.682;2023-03-14T12:57:38;1.13;;;1.07;;
2161;SDS011;1087;50.226;8.682;2023-03-14T13:02:47;1.40;;;1.30;;
2161;SDS011;1087;50.226;8.682;2023-03-14T13:05:23;1.10;;;1.00;;
2161;SDS011;1087;50.226;8.682;2023-03-14T13:12:56;1.33;;;1.20;;
2161;SDS011;1087;50.226;8.682;2023-03-14T13:15:40;3.20;;;1.27;;
2161;SDS011;1087;50.226;8.682;2023-03-14T13:18:15;1.97;;;1.87;;
2161;SDS011;1087;50.226;8.682;2023-03-14T13:20:48;1.30;;;1.20;;
2161;SDS011;1087;50.226;8.682;2023-03-14T13:23:36;1.50;;;1.40;;
2161;SDS011;1087;50.226;8.682;2023-03-14T13:26:03;1.70;;;1.60;;
2161;SDS011;1087;50.226;8.682;2023-03-14T13:28:36;2.37;;;2.17;;
2161;SDS011;1087;50.226;8.682;2023-03-14T13:31:02;2.23;;;1.73;;
2161;SDS011;1087;50.226;8.682;2023-03-14T13:33:29;1.63;;;1.53;;
2161;SDS011;1087;50.226;8.682;2023-03-14T13:35:56;1.90;;;1.80;;
2161;SDS011;1087;50.226;8.682;2023-03-14T13:38:23;2.40;;;2.20;;
2161;SDS011;1087;50.226;8.682;2023-03-14T13:40:51;2.17;;;2.00;;
2161;SDS011;1087;50.226;8.682;2023-03-14T13:46:06;2.63;;;2.43;;
2161;SDS011;1087;50.226;8.682;2023-03-14T13:48:41;1.70;;;1.60;;
2161;SDS011;1087;50.226;8.682;2023-03-14T13:51:10;2.10;;;1.53;;
2161;SDS011;1087;50.226;8.682;2023-03-14T13:53:42;2.10;;;1.40;;
2161;SDS011;1087;50.226;8.682;2023-03-14T13:56:09;1.57;;;1.20;;
2161;SDS011;1087;50.226;8.682;2023-03-14T13:58:36;1.50;;;1.40;;
2161;SDS011;1087;50.226;8.682;2023-03-14T14:01:04;1.83;;;1.73;;
2161;SDS011;1087;50.226;8.682;2023-03-14T14:03:37;1.73;;;1.53;;
2161;SDS011;1087;50.226;8.682;2023-03-14T14:06:06;3.30;;;2.30;;
2161;SDS011;1087;50.226;8.682;2023-03-14T14:08:41;3.67;;;2.67;;
2161;SDS011;1087;50.226;8.682;2023-03-14T14:11:07;4.07;;;2.47;;
2161;SDS011;1087;50.226;8.682;2023-03-14T14:13:44;4.00;;;3.27;;
2161;SDS011;1087;50.226;8.682;2023-03-14T14:16:10;3.90;;;2.70;;
2161;SDS011;1087;50.226;8.682;2023-03-14T14:18:35;6.23;;;3.00;;
2161;SDS011;1087;50.226;8.682;2023-03-14T14:21:02;2.90;;;1.90;;
2161;SDS011;1087;50.226;8.682;2023-03-14T14:23:28;1.70;;;1.20;;
2161;SDS011;1087;50.226;8.682;2023-03-14T14:25:55;1.30;;;1.20;;
2161;SDS011;1087;50.226;8.682;2023-03-14T14:28:31;1.30;;;1.20;;
2161;SDS011;1087;50.226;8.682;2023-03-14T14:31:21;1.20;;;1.10;;
2161;SDS011;1087;50.226;8.682;2023-03-14T14:36:38;2.33;;;1.30;;
2161;SDS011;1087;50.226;8.682;2023-03-14T14:39:06;1.50;;;1.40;;
2161;SDS011;1087;50.226;8.682;2023-03-14T14:41:47;1.50;;;1.40;;
2161;SDS011;1087;50.226;8.682;2023-03-14T14:44:16;2.17;;;1.77;;
2161;SDS011;1087;50.226;8.682;2023-03-14T14:46:45;1.77;;;1.67;;
2161;SDS011;1087;50.226;8.682;2023-03-14T14:49:15;1.40;;;1.30;;
2161;SDS011;1087;50.226;8.682;2023-03-14T14:51:45;1.23;;;1.13;;
2161;SDS011;1087;50.226;8.682;2023-03-14T14:56:48;1.40;;;1.30;;
2161;SDS011;1087;50.226;8.682;2023-03-14T14:59:24;1.93;;;1.60;;
2161;SDS011;1087;50.226;8.682;2023-03-14T15:01:55;1.70;;;1.60;;
2161;SDS011;1087;50.226;8.682;2023-03-14T15:04:22;1.60;;;1.50;;
2161;SDS011;1087;50.226;8.682;2023-03-14T15:06:48;2.17;;;1.97;;
2161;SDS011;1087;50.226;8.682;2023-03-14T15:09:17;2.20;;;2.10;;
2161;SDS011;1087;50.226;8.682;2023-03-14T15:11:43;2.63;;;2.43;;
2161;SDS011;1087;50.226;8.682;2023-03-14T15:14:09;2.27;;;2.07;;
2161;SDS011;1087;50.226;8.682;2023-03-14T15:16:34;2.80;;;2.60;;
2161;SDS011;1087;50.226;8.682;2023-03-14T15:19:02;2.47;;;2.27;;
2161;SDS011;1087;50.226;8.682;2023-03-14T15:21:33;3.07;;;2.70;;
2161;SDS011;1087;50.226;8.682;2023-03-14T15:23:58;2.17;;;2.07;;
2161;SDS011;1087;50.226;8.682;2023-03-14T15:26:25;1.80;;;1.70;;
2161;SDS011;1087;50.226;8.682;2023-03-14T15:28:51;2.30;;;1.80;;
2161;SDS011;1087;50.226;8.682;2023-03-14T15:31:18;1.87;;;1.77;;
2161;SDS011;1087;50.226;8.682;2023-03-14T15:33:46;2.40;;;2.20;;
2161;SDS011;1087;50.226;8.682;2023-03-14T15:36:19;2.00;;;1.90;;
2161;SDS011;1087;50.226;8.682;2023-03-14T15:38:54;1.40;;;1.30;;
2161;SDS011;1087;50.226;8.682;2023-03-14T15:41:20;1.60;;;1.50;;
2161;SDS011;1087;50.226;8.682;2023-03-14T15:43:47;1.50;;;1.40;;
2161;SDS011;1087;50.226;8.682;2023-03-14T15:46:13;1.40;;;1.30;;
2161;SDS011;1087;50.226;8.682;2023-03-14T15:48:39;2.33;;;2.00;;
2161;SDS011;1087;50.226;8.682;2023-03-14T15:51:05;2.20;;;2.00;;
2161;SDS011;1087;50.226;8.682;2023-03-14T15:53:31;2.67;;;1.63;;
2161;SDS011;1087;50.226;8.682;2023-03-14T15:55:56;1.90;;;1.53;;
2161;SDS011;1087;50.226;8.682;2023-03-14T15:58:22;2.33;;;2.13;;
2161;SDS011;1087;50.226;8.682;2023-03-14T16:00:48;2.07;;;1.73;;
2161;SDS011;1087;50.226;8.682;2023-03-14T16:03:14;2.93;;;2.63;;
2161;SDS011;1087;50.226;8.682;2023-03-14T16:05:39;4.97;;;4.07;;
2161;SDS011;1087;50.226;8.682;2023-03-14T16:08:05;2.80;;;2.60;;
2161;SDS011;1087;50.226;8.682;2023-03-14T16:10:31;5.10;;;3.60;;
2161;SDS011;1087;50.226;8.682;2023-03-14T16:12:57;2.20;;;1.63;;
2161;SDS011;1087;50.226;8.682;2023-03-14T16:15:23;1.60;;;1.50;;
2161;SDS011;1087;50.226;8.682;2023-03-14T16:17:54;1.17;;;1.07;;
2161;SDS011;1087;50.226;8.682;2023-03-14T16:20:20;1.20;;;1.10;;